Time;durP1;ratioP1;P1;durP2;ratioP2;P2;SDS_P1;SDS_P2;PMS_P1;PMS_P2;Temp;Humidity;BMP_temperature;BMP_pressure;BME280_temperature;BME280_humidity;BME280_pressure;Samples;Min_cycle;Max_cycle;Signal;HPM_P1;HPM_P2
2023/11/13 00:00:16;0.00;0.00;0.62;0.00;0.00;0.62;10.07;8.33;;;21.20;28.90;;;;;;2272385;61;20535;-69
2023/11/13 00:03:01;0.00;0.00;0.62;0.00;0.00;0.62;10.73;8.20;;;21.20;28.70;;;;;;2272908;61;20977;-71
2023/11/13 00:05:45;0.00;0.00;0.62;0.00;0.00;0.62;8.93;7.07;;;21.20;28.70;;;;;;2272213;61;20933;-69
2023/11/13 00:08:30;0.00;0.00;0.62;0.00;0.00;0.62;10.47;8.27;;;21.20;28.70;;;;;;2272664;61;20403;-74
2023/11/13 00:11:15;0.00;0.00;0.62;0.00;0.00;0.62;10.07;7.80;;;21.20;28.70;;;;;;2272398;61;20889;-70
2023/11/13 00:14:00;0.00;0.00;0.62;0.00;0.00;0.62;10.80;8.53;;;21.20;28.70;;;;;;2272142;61;20369;-70
2023/11/13 00:16:46;0.00;0.00;0.62;0.00;0.00;0.62;9.80;7.40;;;21.20;28.70;;;;;;2272817;61;20369;-71
2023/11/13 00:19:31;0.00;0.00;0.62;0.00;0.00;0.62;8.03;6.73;;;21.20;28.70;;;;;;2272688;61;20412;-70
2023/11/13 00:22:16;0.00;0.00;0.62;0.00;0.00;0.62;9.33;7.87;;;21.20;28.70;;;;;;2272682;61;20401;-70
2023/11/13 00:25:02;0.00;0.00;0.62;0.00;0.00;0.62;9.50;7.93;;;21.20;28.70;;;;;;2272871;61;20987;-69
2023/11/13 00:27:46;0.00;0.00;0.62;0.00;0.00;0.62;7.60;6.27;;;21.20;28.70;;;;;;2272435;61;20358;-70
2023/11/13 00:30:30;0.00;0.00;0.62;0.00;0.00;0.62;8.00;6.40;;;21.20;28.70;;;;;;2272931;61;20401;-70
2023/11/13 00:33:16;0.00;0.00;0.62;0.00;0.00;0.62;8.23;6.47;;;21.20;28.70;;;;;;2272716;61;20407;-71
2023/11/13 00:36:02;0.00;0.00;0.62;0.00;0.00;0.62;8.90;7.27;;;21.20;28.70;;;;;;2272539;61;20874;-71
2023/11/13 00:38:47;0.00;0.00;0.62;0.00;0.00;0.62;9.27;7.07;;;21.20;28.70;;;;;;2272557;61;20886;-70
2023/11/13 00:41:33;0.00;0.00;0.62;0.00;0.00;0.62;9.77;8.03;;;21.20;28.70;;;;;;2272965;61;20493;-70
2023/11/13 00:44:17;0.00;0.00;0.62;0.00;0.00;0.62;9.60;7.20;;;21.20;28.70;;;;;;2272368;61;20389;-70
2023/11/13 00:47:03;0.00;0.00;0.62;0.00;0.00;0.62;9.40;7.37;;;21.20;29.20;;;;;;2272782;61;20370;-70
2023/11/13 00:49:49;0.00;0.00;0.62;0.00;0.00;0.62;8.57;6.70;;;21.20;28.70;;;;;;2271919;61;20409;-71
2023/11/13 00:52:33;0.00;0.00;0.62;0.00;0.00;0.62;8.30;6.63;;;21.20;28.70;;;;;;2272774;61;20374;-70
2023/11/13 00:55:20;0.00;0.00;0.62;0.00;0.00;0.62;7.93;6.00;;;21.20;28.60;;;;;;2272609;61;20882;-71
2023/11/13 00:58:04;0.00;0.00;0.62;0.00;0.00;0.62;7.97;6.47;;;21.20;28.70;;;;;;2272001;61;20370;-70
2023/11/13 01:00:49;0.00;0.00;0.62;0.00;0.00;0.62;7.90;6.17;;;21.20;28.60;;;;;;2275060;60;20362;-70
2023/11/13 01:03:34;0.00;0.00;0.62;0.00;0.00;0.62;7.67;6.20;;;21.20;28.60;;;;;;2272454;61;20390;-70
2023/11/13 01:06:20;0.00;0.00;0.62;0.00;0.00;0.62;8.60;7.03;;;21.20;28.60;;;;;;2272236;61;20443;-71
2023/11/13 01:09:04;0.00;0.00;0.62;0.00;0.00;0.62;7.10;5.93;;;21.20;28.60;;;;;;2271976;61;20819;-71
2023/11/13 01:11:50;0.00;0.00;0.62;0.00;0.00;0.62;7.30;5.27;;;21.20;28.60;;;;;;2272887;61;20417;-70
2023/11/13 01:14:35;0.00;0.00;0.62;0.00;0.00;0.62;8.67;7.03;;;21.20;28.70;;;;;;2272863;61;20926;-71
2023/11/13 01:17:20;0.00;0.00;0.62;0.00;0.00;0.62;8.00;6.03;;;21.10;28.50;;;;;;2272949;61;20362;-71
2023/11/13 01:20:07;0.00;0.00;0.62;0.00;0.00;0.62;7.47;5.70;;;21.20;28.60;;;;;;2272052;61;20366;-71
2023/11/13 01:22:53;0.00;0.00;0.62;0.00;0.00;0.62;7.40;5.90;;;21.10;28.50;;;;;;2272639;61;20884;-68
2023/11/13 01:25:37;0.00;0.00;0.62;0.00;0.00;0.62;7.83;5.70;;;21.20;28.60;;;;;;2272710;61;20528;-70
2023/11/13 01:28:22;0.00;0.00;0.62;0.00;0.00;0.62;7.20;5.57;;;21.20;28.60;;;;;;2272068;61;20408;-70
2023/11/13 01:31:10;0.00;0.00;0.62;0.00;0.00;0.62;6.87;5.87;;;21.10;28.50;;;;;;2272784;61;20366;-71
2023/11/13 01:33:56;0.00;0.00;0.62;0.00;0.00;0.62;6.77;5.30;;;21.10;28.50;;;;;;2272608;61;20350;-70
2023/11/13 01:36:44;0.00;0.00;0.62;0.00;0.00;0.62;6.60;5.70;;;21.10;28.50;;;;;;2269424;61;20896;-69
2023/11/13 01:39:30;0.00;0.00;0.62;0.00;0.00;0.62;6.77;5.37;;;21.10;28.50;;;;;;2272274;61;20362;-70
2023/11/13 01:42:14;0.00;0.00;0.62;0.00;0.00;0.62;6.90;5.20;;;21.10;28.50;;;;;;2272329;61;20897;-69
2023/11/13 01:45:02;0.00;0.00;0.62;0.00;0.00;0.62;6.93;4.93;;;21.10;28.50;;;;;;2272141;61;20397;-69
2023/11/13 01:47:47;0.00;0.00;0.62;0.00;0.00;0.62;7.27;5.20;;;21.10;28.50;;;;;;2271929;61;20390;-71
2023/11/13 01:50:32;0.00;0.00;0.62;0.00;0.00;0.62;6.13;5.07;;;21.10;28.50;;;;;;2742474;45;20420;-71
2023/11/13 01:53:21;0.00;0.00;0.62;0.00;0.00;0.62;5.27;4.63;;;21.10;28.50;;;;;;2272638;61;20362;-70
2023/11/13 01:56:08;0.00;0.00;0.62;0.00;0.00;0.62;7.63;6.23;;;21.10;28.50;;;;;;2269255;61;20420;-71
2023/11/13 01:58:55;0.00;0.00;0.62;0.00;0.00;0.62;5.87;5.10;;;21.10;28.50;;;;;;2272035;61;20905;-70
2023/11/13 02:01:41;0.00;0.00;0.62;0.00;0.00;0.62;5.57;4.57;;;21.10;28.50;;;;;;2271860;61;20402;-69
2023/11/13 02:04:25;0.00;0.00;0.62;0.00;0.00;0.62;5.10;4.30;;;21.10;28.50;;;;;;2271670;61;20536;-70
2023/11/13 02:07:10;0.00;0.00;0.62;0.00;0.00;0.62;6.23;4.50;;;21.10;28.50;;;;;;2269642;61;20421;-71
2023/11/13 02:09:55;0.00;0.00;0.62;0.00;0.00;0.62;5.50;4.30;;;21.10;28.50;;;;;;2665361;45;20440;-69
2023/11/13 02:12:41;0.00;0.00;0.62;0.00;0.00;0.62;5.33;4.27;;;21.10;28.50;;;;;;2270654;61;20463;-70
2023/11/13 02:15:26;0.00;0.00;0.62;0.00;0.00;0.62;5.50;4.03;;;21.00;28.40;;;;;;2268424;61;20436;-70
2023/11/13 02:18:10;0.00;0.00;0.62;0.00;0.00;0.62;6.27;4.07;;;21.00;28.40;;;;;;2299241;57;20925;-70
2023/11/13 02:20:56;0.00;0.00;0.62;0.00;0.00;0.62;4.80;4.13;;;21.00;28.40;;;;;;2271905;61;20366;-70
2023/11/13 02:23:43;0.00;0.00;0.62;0.00;0.00;0.62;5.33;4.30;;;21.00;28.40;;;;;;2272349;61;20454;-69
2023/11/13 02:26:28;0.00;0.00;0.62;0.00;0.00;0.62;5.47;4.40;;;21.00;28.40;;;;;;2271630;61;20454;-69
2023/11/13 02:29:12;0.00;0.00;0.62;0.00;0.00;0.62;6.03;4.63;;;21.00;28.40;;;;;;2271568;61;20579;-71
2023/11/13 02:31:57;0.00;0.00;0.62;0.00;0.00;0.62;6.40;3.93;;;21.00;28.40;;;;;;2272498;61;20428;-70
2023/11/13 02:34:43;0.00;0.00;0.62;0.00;0.00;0.62;4.63;3.97;;;21.00;28.40;;;;;;2271667;61;20378;-73
2023/11/13 02:37:29;0.00;0.00;0.62;0.00;0.00;0.62;5.00;3.60;;;21.00;28.40;;;;;;2272365;61;20819;-69
2023/11/13 02:40:16;0.00;0.00;0.62;0.00;0.00;0.62;5.13;3.77;;;21.00;28.40;;;;;;2272520;61;20411;-70
2023/11/13 02:43:00;0.00;0.00;0.62;0.00;0.00;0.62;4.73;3.57;;;21.00;28.40;;;;;;2271836;61;20382;-69
2023/11/13 02:45:45;0.00;0.00;0.62;0.00;0.00;0.62;5.63;4.40;;;21.00;28.40;;;;;;2268869;61;20406;-70
2023/11/13 02:48:31;0.00;0.00;0.62;0.00;0.00;0.62;4.53;3.47;;;21.00;28.40;;;;;;2267195;61;20375;-71
2023/11/13 02:51:17;0.00;0.00;0.62;0.00;0.00;0.62;4.77;3.50;;;21.00;28.40;;;;;;2268365;61;20359;-70
2023/11/13 02:54:01;0.00;0.00;0.62;0.00;0.00;0.62;5.43;3.90;;;21.00;28.40;;;;;;2268323;61;20405;-69
2023/11/13 02:56:47;0.00;0.00;0.62;0.00;0.00;0.62;4.50;3.43;;;21.00;28.40;;;;;;2267548;61;20362;-70
2023/11/13 02:59:32;0.00;0.00;0.62;0.00;0.00;0.62;4.67;3.70;;;21.00;28.40;;;;;;2267431;61;20447;-70
2023/11/13 03:02:16;0.00;0.00;0.62;0.00;0.00;0.62;5.30;3.70;;;21.00;28.40;;;;;;2267836;61;20425;-70
2023/11/13 03:05:01;0.00;0.00;0.62;0.00;0.00;0.62;5.07;4.07;;;21.00;28.40;;;;;;2267546;61;20410;-71
2023/11/13 03:07:46;0.00;0.00;0.62;0.00;0.00;0.62;4.33;3.40;;;21.00;28.40;;;;;;2268108;61;20382;-69
2023/11/13 03:10:31;0.00;0.00;0.62;0.00;0.00;0.62;4.80;3.50;;;21.00;28.40;;;;;;2267853;61;20363;-69
2023/11/13 03:13:16;0.00;0.00;0.62;0.00;0.00;0.62;4.57;3.23;;;21.00;28.40;;;;;;2268238;61;20363;-72
2023/11/13 03:16:01;0.00;0.00;0.62;0.00;0.00;0.62;4.13;2.97;;;21.00;28.40;;;;;;2268111;61;20391;-70
2023/11/13 03:18:46;0.00;0.00;0.62;0.00;0.00;0.62;5.23;3.50;;;20.90;28.30;;;;;;2267569;61;20875;-70
2023/11/13 03:21:32;0.00;0.00;0.62;0.00;0.00;0.62;4.70;3.67;;;20.90;28.30;;;;;;2267974;61;20409;-70
2023/11/13 03:24:17;0.00;0.00;0.62;0.00;0.00;0.62;6.20;3.63;;;20.90;28.40;;;;;;2268507;61;20387;-69
2023/11/13 03:27:02;0.00;0.00;0.62;0.00;0.00;0.62;3.90;3.23;;;20.90;28.30;;;;;;2267993;61;20379;-70
2023/11/13 03:29:48;0.00;0.00;0.62;0.00;0.00;0.62;4.50;3.33;;;20.90;28.30;;;;;;2268080;61;20371;-70
2023/11/13 03:32:33;0.00;0.00;0.62;0.00;0.00;0.62;4.13;3.70;;;20.90;28.30;;;;;;2264809;61;20370;-71
2023/11/13 03:35:17;0.00;0.00;0.62;0.00;0.00;0.62;4.80;3.80;;;20.90;28.30;;;;;;2268110;61;20403;-70
2023/11/13 03:38:02;0.00;0.00;0.62;0.00;0.00;0.62;3.40;2.53;;;20.90;28.30;;;;;;2267874;61;20791;-69
2023/11/13 03:40:47;0.00;0.00;0.62;0.00;0.00;0.62;3.60;3.00;;;20.90;28.30;;;;;;2267722;61;20449;-70
2023/11/13 03:43:35;0.00;0.00;0.62;0.00;0.00;0.62;3.40;2.90;;;20.90;28.30;;;;;;2267860;61;20499;-70
2023/11/13 03:46:21;0.00;0.00;0.62;0.00;0.00;0.62;3.50;2.70;;;20.90;28.30;;;;;;2268249;61;20715;-70
2023/11/13 03:49:06;0.00;0.00;0.62;0.00;0.00;0.62;3.63;2.93;;;20.90;28.30;;;;;;2267437;61;20922;-70
2023/11/13 03:51:50;0.00;0.00;0.62;0.00;0.00;0.62;3.73;2.87;;;20.90;28.30;;;;;;2268220;61;20435;-69
2023/11/13 03:54:35;0.00;0.00;0.62;0.00;0.00;0.62;4.17;2.87;;;20.90;28.30;;;;;;2267938;61;20387;-68
2023/11/13 03:57:19;0.00;0.00;0.62;0.00;0.00;0.62;3.70;2.70;;;20.90;28.30;;;;;;2268415;61;20427;-68
2023/11/13 04:00:07;0.00;0.00;0.62;0.00;0.00;0.62;4.20;3.00;;;20.90;28.30;;;;;;2268082;61;20906;-70
2023/11/13 04:02:58;0.00;0.00;0.62;0.00;0.00;0.62;3.70;2.90;;;20.90;28.30;;;;;;2267761;61;20371;-68
2023/11/13 04:05:43;0.00;0.00;0.62;0.00;0.00;0.62;3.07;2.70;;;20.90;28.30;;;;;;2267768;61;20398;-71
2023/11/13 04:08:28;0.00;0.00;0.62;0.00;0.00;0.62;3.00;2.20;;;20.90;28.30;;;;;;2574054;45;20463;-69
2023/11/13 04:11:13;0.00;0.00;0.62;0.00;0.00;0.62;3.37;2.60;;;20.90;28.30;;;;;;2267793;61;20367;-69
2023/11/13 04:13:58;0.00;0.00;0.62;0.00;0.00;0.62;3.70;3.20;;;20.90;28.30;;;;;;2268196;61;20429;-69
2023/11/13 04:16:44;0.00;0.00;0.62;0.00;0.00;0.62;3.93;3.17;;;20.90;28.30;;;;;;2264959;61;20417;-69
2023/11/13 04:19:30;0.00;0.00;0.62;0.00;0.00;0.62;3.53;2.43;;;20.80;28.20;;;;;;2267270;61;20371;-69
2023/11/13 04:22:15;0.00;0.00;0.62;0.00;0.00;0.62;3.60;3.00;;;20.80;28.20;;;;;;2268283;61;20777;-72
2023/11/13 04:25:01;0.00;0.00;0.62;0.00;0.00;0.62;3.47;2.73;;;20.80;28.30;;;;;;2267688;61;20394;-69
2023/11/13 04:27:45;0.00;0.00;0.62;0.00;0.00;0.62;2.73;2.40;;;20.80;28.30;;;;;;2268756;61;20412;-72
2023/11/13 04:30:33;0.00;0.00;0.62;0.00;0.00;0.62;2.90;2.50;;;20.80;28.20;;;;;;2268893;61;20367;-70
2023/11/13 04:33:18;0.00;0.00;0.62;0.00;0.00;0.62;3.37;2.60;;;20.80;28.20;;;;;;2268597;61;20393;-71
2023/11/13 04:36:05;0.00;0.00;0.62;0.00;0.00;0.62;3.03;2.30;;;20.80;28.20;;;;;;2268523;61;20387;-69
2023/11/13 04:38:50;0.00;0.00;0.62;0.00;0.00;0.62;3.47;2.23;;;20.80;28.20;;;;;;2268488;61;20399;-69
2023/11/13 04:41:34;0.00;0.00;0.62;0.00;0.00;0.62;3.40;2.50;;;20.80;28.20;;;;;;2268650;61;20891;-69
2023/11/13 04:44:19;0.00;0.00;0.62;0.00;0.00;0.62;3.40;2.80;;;20.80;28.30;;;;;;2268258;61;20391;-69
2023/11/13 04:47:05;0.00;0.00;0.62;0.00;0.00;0.62;2.90;2.37;;;20.80;28.20;;;;;;2268644;61;20379;-69
2023/11/13 04:49:49;0.00;0.00;0.62;0.00;0.00;0.62;2.87;2.03;;;20.80;28.20;;;;;;2268455;61;20359;-69
2023/11/13 04:52:35;0.00;0.00;0.62;0.00;0.00;0.62;3.10;2.60;;;20.80;28.80;;;;;;2268859;61;20418;-69
2023/11/13 04:55:20;0.00;0.00;0.62;0.00;0.00;0.62;2.80;2.13;;;20.80;28.80;;;;;;2268617;61;20684;-69
2023/11/13 04:58:05;0.00;0.00;0.62;0.00;0.00;0.62;2.80;2.13;;;20.80;28.20;;;;;;2268392;61;20409;-69
2023/11/13 05:00:49;0.00;0.00;0.62;0.00;0.00;0.62;3.13;2.10;;;20.80;28.20;;;;;;2268814;61;20383;-70
2023/11/13 05:03:35;0.00;0.00;0.62;0.00;0.00;0.62;2.50;2.10;;;20.80;28.30;;;;;;2268578;61;20355;-71
2023/11/13 05:06:20;0.00;0.00;0.62;0.00;0.00;0.62;2.60;1.90;;;20.80;28.20;;;;;;2269434;61;21052;-69
2023/11/13 05:09:07;0.00;0.00;0.62;0.00;0.00;0.62;2.73;2.07;;;20.80;28.20;;;;;;2271776;61;20865;-70
2023/11/13 05:11:52;0.00;0.00;0.62;0.00;0.00;0.62;2.30;1.80;;;20.80;28.30;;;;;;2273014;61;20823;-70
2023/11/13 05:14:40;0.00;0.00;0.62;0.00;0.00;0.62;3.10;2.33;;;20.80;28.20;;;;;;2272635;61;20471;-70
2023/11/13 05:17:25;0.00;0.00;0.62;0.00;0.00;0.62;2.70;2.27;;;20.80;28.30;;;;;;2272497;61;20378;-70
2023/11/13 05:20:10;0.00;0.00;0.62;0.00;0.00;0.62;2.20;1.87;;;20.70;28.20;;;;;;2272463;61;20351;-70
2023/11/13 05:22:55;0.00;0.00;0.62;0.00;0.00;0.62;2.87;2.10;;;20.80;28.30;;;;;;2272694;61;20358;-69
2023/11/13 05:25:43;0.00;0.00;0.62;0.00;0.00;0.62;3.23;2.20;;;20.80;28.20;;;;;;2272438;61;20524;-68
2023/11/13 05:28:27;0.00;0.00;0.62;0.00;0.00;0.62;3.30;2.37;;;20.70;28.70;;;;;;2272556;61;20929;-70
2023/11/13 05:31:14;0.00;0.00;0.62;0.00;0.00;0.62;2.97;2.20;;;20.80;28.20;;;;;;2271640;61;20362;-71
2023/11/13 05:33:59;0.00;0.00;0.62;0.00;0.00;0.62;2.50;2.20;;;20.70;28.20;;;;;;2272395;61;20464;-70
2023/11/13 05:36:43;0.00;0.00;0.62;0.00;0.00;0.62;2.33;1.67;;;20.70;28.10;;;;;;2272770;61;20347;-71
2023/11/13 05:39:28;0.00;0.00;0.62;0.00;0.00;0.62;2.47;1.87;;;20.70;28.70;;;;;;2271964;61;20451;-69
2023/11/13 05:42:14;0.00;0.00;0.62;0.00;0.00;0.62;2.87;1.93;;;20.70;28.10;;;;;;2272751;61;20453;-70
2023/11/13 05:44:59;0.00;0.00;0.62;0.00;0.00;0.62;2.87;2.00;;;20.70;28.20;;;;;;2272500;61;20951;-70
2023/11/13 05:47:44;0.00;0.00;0.62;0.00;0.00;0.62;3.30;2.20;;;20.70;28.20;;;;;;2272279;61;20899;-69
2023/11/13 05:50:29;0.00;0.00;0.62;0.00;0.00;0.62;2.80;2.00;;;20.70;28.10;;;;;;2272347;61;20500;-70
2023/11/13 05:53:13;0.00;0.00;0.62;0.00;0.00;0.62;3.13;1.87;;;20.70;28.20;;;;;;2272498;61;20408;-70
2023/11/13 05:55:58;0.00;0.00;0.62;0.00;0.00;0.62;2.53;1.90;;;20.70;28.20;;;;;;2272848;61;20378;-70
2023/11/13 05:58:44;0.00;0.00;0.62;0.00;0.00;0.62;2.83;1.97;;;20.70;28.20;;;;;;2272304;61;20393;-70
2023/11/13 06:01:31;0.00;0.00;0.62;0.00;0.00;0.62;3.33;1.83;;;20.70;28.20;;;;;;2272336;61;20437;-70
2023/11/13 06:04:15;0.00;0.00;0.62;0.00;0.00;0.62;3.20;2.00;;;20.70;28.20;;;;;;2272250;61;20390;-70
2023/11/13 06:07:00;0.00;0.00;0.62;0.00;0.00;0.62;2.50;1.93;;;20.70;28.20;;;;;;2270591;61;20413;-70
2023/11/13 06:09:45;0.00;0.00;0.62;0.00;0.00;0.62;2.03;1.63;;;20.70;28.20;;;;;;2268082;61;20363;-70
2023/11/13 06:12:30;0.00;0.00;0.62;0.00;0.00;0.62;2.83;1.80;;;20.70;28.20;;;;;;2268721;61;20433;-69
2023/11/13 06:15:17;0.00;0.00;0.62;0.00;0.00;0.62;2.63;2.10;;;20.70;28.20;;;;;;2268575;61;20382;-69
2023/11/13 06:18:01;0.00;0.00;0.62;0.00;0.00;0.62;2.63;1.53;;;20.70;28.20;;;;;;2267810;61;20878;-69
2023/11/13 06:20:47;0.00;0.00;0.62;0.00;0.00;0.62;2.90;2.07;;;20.60;28.10;;;;;;2268618;61;20363;-70
2023/11/13 06:23:32;0.00;0.00;0.62;0.00;0.00;0.62;2.23;1.87;;;20.70;28.20;;;;;;2268244;61;20466;-70
2023/11/13 06:26:18;0.00;0.00;0.62;0.00;0.00;0.62;2.77;1.73;;;20.70;28.20;;;;;;2268555;61;20391;-70
2023/11/13 06:29:03;0.00;0.00;0.62;0.00;0.00;0.62;2.27;1.67;;;20.60;28.10;;;;;;2268269;61;20371;-70
2023/11/13 06:31:49;0.00;0.00;0.62;0.00;0.00;0.62;2.60;1.70;;;20.70;28.20;;;;;;2268115;61;20363;-70
2023/11/13 06:34:34;0.00;0.00;0.62;0.00;0.00;0.62;3.00;1.70;;;20.60;28.10;;;;;;2268783;61;20383;-70
2023/11/13 06:37:19;0.00;0.00;0.62;0.00;0.00;0.62;2.47;1.93;;;20.60;28.10;;;;;;2268653;61;20413;-70
2023/11/13 06:40:06;0.00;0.00;0.62;0.00;0.00;0.62;1.90;1.40;;;20.60;28.10;;;;;;2268293;61;20801;-70
2023/11/13 06:42:51;0.00;0.00;0.62;0.00;0.00;0.62;2.30;1.53;;;20.60;28.10;;;;;;2268654;61;20937;-70
2023/11/13 06:45:38;0.00;0.00;0.62;0.00;0.00;0.62;2.87;1.83;;;20.60;28.10;;;;;;2267915;61;21074;-70
2023/11/13 06:48:24;0.00;0.00;0.62;0.00;0.00;0.62;2.90;2.07;;;20.60;28.10;;;;;;2268133;61;20363;-70
2023/11/13 06:51:13;0.00;0.00;0.62;0.00;0.00;0.62;2.47;1.63;;;20.60;28.10;;;;;;2268507;61;20370;-70
2023/11/13 06:53:59;0.00;0.00;0.62;0.00;0.00;0.62;2.67;2.03;;;20.60;28.10;;;;;;2268067;61;20367;-70
2023/11/13 06:56:43;0.00;0.00;0.62;0.00;0.00;0.62;2.20;1.50;;;20.60;28.10;;;;;;2268354;61;20362;-70
2023/11/13 06:59:28;0.00;0.00;0.62;0.00;0.00;0.62;2.20;1.67;;;20.60;28.20;;;;;;2267665;61;20363;-71
2023/11/13 07:02:13;0.00;0.00;0.62;0.00;0.00;0.62;1.90;1.50;;;20.60;28.20;;;;;;2268545;61;20414;-70
2023/11/13 07:04:58;0.00;0.00;0.62;0.00;0.00;0.62;2.17;1.83;;;20.60;28.20;;;;;;2268049;61;20391;-70
2023/11/13 07:07:43;0.00;0.00;0.62;0.00;0.00;0.62;2.40;1.60;;;20.60;28.20;;;;;;2271117;61;20484;-70
2023/11/13 07:10:33;0.00;0.00;0.62;0.00;0.00;0.62;3.20;1.73;;;20.60;28.20;;;;;;2271951;61;20947;-70
2023/11/13 07:13:18;0.00;0.00;0.62;0.00;0.00;0.62;2.83;1.70;;;20.60;28.20;;;;;;2272702;61;20473;-70
2023/11/13 07:16:03;0.00;0.00;0.62;0.00;0.00;0.62;2.33;1.60;;;20.60;28.20;;;;;;2271781;61;20382;-69
2023/11/13 07:18:47;0.00;0.00;0.62;0.00;0.00;0.62;2.80;2.10;;;20.60;28.20;;;;;;2272232;61;20358;-69
2023/11/13 07:21:38;0.00;0.00;0.62;0.00;0.00;0.62;2.50;1.80;;;20.50;28.10;;;;;;2272589;61;20424;-69
2023/11/13 07:24:23;0.00;0.00;0.62;0.00;0.00;0.62;2.57;2.03;;;20.60;28.20;;;;;;2272323;61;20381;-70
2023/11/13 07:27:07;0.00;0.00;0.62;0.00;0.00;0.62;2.20;1.60;;;20.50;28.10;;;;;;2272634;61;20354;-70
2023/11/13 07:29:53;0.00;0.00;0.62;0.00;0.00;0.62;2.97;2.13;;;20.60;28.20;;;;;;2271702;61;20370;-70
2023/11/13 07:32:37;0.00;0.00;0.62;0.00;0.00;0.62;3.13;2.30;;;20.50;28.10;;;;;;2271979;61;20366;-70
2023/11/13 07:35:22;0.00;0.00;0.62;0.00;0.00;0.62;3.10;2.50;;;20.50;28.10;;;;;;2272142;61;20535;-70
2023/11/13 07:38:09;0.00;0.00;0.62;0.00;0.00;0.62;3.27;2.20;;;20.60;28.20;;;;;;2271860;61;20357;-68
2023/11/13 07:40:53;0.00;0.00;0.62;0.00;0.00;0.62;3.07;2.47;;;20.50;28.20;;;;;;2272110;61;20366;-68
2023/11/13 07:43:39;0.00;0.00;0.62;0.00;0.00;0.62;2.87;2.00;;;20.50;28.20;;;;;;2272027;61;20374;-69
2023/11/13 07:46:23;0.00;0.00;0.62;0.00;0.00;0.62;3.43;2.20;;;20.50;28.20;;;;;;2271775;61;20444;-70
2023/11/13 07:49:09;0.00;0.00;0.62;0.00;0.00;0.62;3.50;2.63;;;20.50;28.20;;;;;;2269206;61;20371;-69
2023/11/13 07:51:56;0.00;0.00;0.62;0.00;0.00;0.62;3.70;2.63;;;20.50;28.20;;;;;;2268055;61;20394;-70
2023/11/13 07:54:42;0.00;0.00;0.62;0.00;0.00;0.62;3.30;2.40;;;20.50;28.20;;;;;;2268314;61;20932;-70
2023/11/13 07:57:26;0.00;0.00;0.62;0.00;0.00;0.62;4.20;2.90;;;20.50;28.20;;;;;;2267753;61;20416;-70
2023/11/13 08:00:13;0.00;0.00;0.62;0.00;0.00;0.62;4.53;2.97;;;20.50;28.20;;;;;;2268380;61;20362;-69
2023/11/13 08:02:59;0.00;0.00;0.62;0.00;0.00;0.62;4.17;3.50;;;20.50;28.20;;;;;;2269193;61;20366;-71
2023/11/13 08:05:43;0.00;0.00;0.62;0.00;0.00;0.62;4.00;2.63;;;20.50;28.20;;;;;;2268652;61;20394;-71
2023/11/13 08:08:28;0.00;0.00;0.62;0.00;0.00;0.62;3.57;2.97;;;20.50;28.20;;;;;;2542583;53;20389;-70
2023/11/13 08:11:14;0.00;0.00;0.62;0.00;0.00;0.62;4.70;3.37;;;20.50;28.30;;;;;;2269209;61;20363;-70
2023/11/13 08:13:59;0.00;0.00;0.62;0.00;0.00;0.62;4.53;3.33;;;20.50;28.20;;;;;;2268793;61;20886;-70
2023/11/13 08:16:43;0.00;0.00;0.62;0.00;0.00;0.62;5.20;3.23;;;20.50;28.20;;;;;;2269044;61;20402;-70
2023/11/13 08:19:28;0.00;0.00;0.62;0.00;0.00;0.62;4.83;3.80;;;20.50;28.20;;;;;;2268699;61;20420;-70
2023/11/13 08:22:12;0.00;0.00;0.62;0.00;0.00;0.62;4.97;3.70;;;20.50;28.30;;;;;;2268391;61;20447;-69
2023/11/13 08:24:57;0.00;0.00;0.62;0.00;0.00;0.62;5.00;4.00;;;20.50;28.20;;;;;;2269000;61;20386;-71
2023/11/13 08:27:44;0.00;0.00;0.62;0.00;0.00;0.62;5.13;3.50;;;20.50;28.30;;;;;;2268986;61;20881;-68
2023/11/13 08:30:29;0.00;0.00;0.62;0.00;0.00;0.62;4.70;3.47;;;20.50;28.30;;;;;;2268816;61;20371;-69
2023/11/13 08:33:13;0.00;0.00;0.62;0.00;0.00;0.62;5.70;3.60;;;20.50;28.30;;;;;;2269324;61;20360;-68
2023/11/13 08:36:04;0.00;0.00;0.62;0.00;0.00;0.62;4.87;3.47;;;20.50;28.30;;;;;;2268806;61;20484;-72
2023/11/13 08:38:50;0.00;0.00;0.62;0.00;0.00;0.62;4.50;3.47;;;20.50;28.30;;;;;;2268629;61;20396;-69
2023/11/13 08:41:35;0.00;0.00;0.62;0.00;0.00;0.62;5.43;4.20;;;20.50;28.30;;;;;;2269053;61;20370;-69
2023/11/13 08:44:24;0.00;0.00;0.62;0.00;0.00;0.62;4.53;3.70;;;20.50;28.30;;;;;;2268115;61;20436;-69
2023/11/13 08:47:09;0.00;0.00;0.62;0.00;0.00;0.62;6.47;4.40;;;20.50;28.30;;;;;;2268985;61;20367;-70
2023/11/13 08:49:57;0.00;0.00;0.62;0.00;0.00;0.62;4.43;3.57;;;20.50;28.30;;;;;;2268847;61;20372;-70
2023/11/13 08:52:44;0.00;0.00;0.62;0.00;0.00;0.62;5.00;3.73;;;20.50;28.80;;;;;;2268639;61;20771;-70
2023/11/13 08:55:28;0.00;0.00;0.62;0.00;0.00;0.62;5.83;4.43;;;20.50;28.30;;;;;;2268907;61;20418;-69
2023/11/13 08:58:13;0.00;0.00;0.62;0.00;0.00;0.62;6.33;4.80;;;20.50;28.30;;;;;;2268245;61;20445;-70
2023/11/13 09:00:59;0.00;0.00;0.62;0.00;0.00;0.62;5.67;4.30;;;20.50;28.30;;;;;;2268966;61;20795;-70
2023/11/13 09:03:44;0.00;0.00;0.62;0.00;0.00;0.62;6.20;4.73;;;20.50;28.30;;;;;;2268971;61;20371;-70
2023/11/13 09:06:31;0.00;0.00;0.62;0.00;0.00;0.62;5.83;4.10;;;20.50;28.30;;;;;;2268309;61;20437;-70
2023/11/13 09:09:19;0.00;0.00;0.62;0.00;0.00;0.62;5.87;4.37;;;20.50;28.30;;;;;;2268397;61;20881;-70
2023/11/13 09:12:05;0.00;0.00;0.62;0.00;0.00;0.62;5.63;4.10;;;20.50;28.30;;;;;;2268972;61;20405;-70
2023/11/13 09:14:49;0.00;0.00;0.62;0.00;0.00;0.62;6.33;4.60;;;20.50;28.30;;;;;;2268557;61;20379;-70
2023/11/13 09:17:41;0.00;0.00;0.62;0.00;0.00;0.62;5.50;4.40;;;20.50;28.30;;;;;;2268438;61;20388;-70
2023/11/13 09:20:26;0.00;0.00;0.62;0.00;0.00;0.62;5.23;4.73;;;20.50;28.30;;;;;;2268498;61;20367;-70
2023/11/13 09:23:11;0.00;0.00;0.62;0.00;0.00;0.62;4.60;3.97;;;20.60;28.40;;;;;;2269198;61;20406;-70
2023/11/13 09:25:55;0.00;0.00;0.62;0.00;0.00;0.62;5.20;4.40;;;20.50;28.30;;;;;;2268710;61;20391;-70
2023/11/13 09:28:40;0.00;0.00;0.62;0.00;0.00;0.62;6.30;5.07;;;20.60;28.30;;;;;;2268158;61;20362;-70
2023/11/13 09:31:24;0.00;0.00;0.62;0.00;0.00;0.62;6.17;5.33;;;20.60;28.40;;;;;;2268894;61;20914;-70
2023/11/13 09:34:15;0.00;0.00;0.62;0.00;0.00;0.62;4.60;3.40;;;20.60;28.40;;;;;;2268500;61;20359;-70
2023/11/13 09:37:00;0.00;0.00;0.62;0.00;0.00;0.62;5.60;4.03;;;20.60;28.40;;;;;;2268491;61;20360;-69
2023/11/13 09:39:46;0.00;0.00;0.62;0.00;0.00;0.62;6.70;5.37;;;20.60;28.40;;;;;;2268315;61;20364;-69
2023/11/13 09:42:33;0.00;0.00;0.62;0.00;0.00;0.62;5.53;3.90;;;20.60;28.40;;;;;;2268755;61;20366;-71
2023/11/13 09:45:19;0.00;0.00;0.62;0.00;0.00;0.62;5.60;4.37;;;20.60;28.50;;;;;;2268008;61;20426;-71
2023/11/13 09:48:07;0.00;0.00;0.62;0.00;0.00;0.62;5.00;4.37;;;20.60;28.50;;;;;;2268295;61;20886;-70
2023/11/13 09:50:53;0.00;0.00;0.62;0.00;0.00;0.62;5.83;4.70;;;20.60;28.50;;;;;;2268226;61;20367;-69
2023/11/13 09:53:42;0.00;0.00;0.62;0.00;0.00;0.62;5.17;3.90;;;20.60;28.50;;;;;;2268598;61;20509;-71
2023/11/13 09:56:29;0.00;0.00;0.62;0.00;0.00;0.62;4.87;4.23;;;20.60;28.40;;;;;;2268166;61;20454;-70
2023/11/13 09:59:15;0.00;0.00;0.62;0.00;0.00;0.62;6.00;4.67;;;20.60;28.40;;;;;;2267797;61;20398;-71
2023/11/13 10:02:00;0.00;0.00;0.62;0.00;0.00;0.62;5.40;3.77;;;20.60;28.40;;;;;;2268055;61;20910;-70
2023/11/13 10:04:44;0.00;0.00;0.62;0.00;0.00;0.62;5.10;4.53;;;20.60;28.40;;;;;;2267883;61;20387;-71
2023/11/13 10:07:30;0.00;0.00;0.62;0.00;0.00;0.62;5.20;4.33;;;20.60;28.40;;;;;;2271037;61;20411;-70
2023/11/13 10:10:22;0.00;0.00;0.62;0.00;0.00;0.62;4.50;3.73;;;20.60;28.40;;;;;;2272473;61;20367;-70
2023/11/13 10:13:12;0.00;0.00;0.62;0.00;0.00;0.62;6.40;4.60;;;20.70;28.40;;;;;;2271794;61;20424;-70
2023/11/13 10:16:15;0.00;0.00;0.62;0.00;0.00;0.62;5.70;4.67;;;20.60;28.30;;;;;;2272767;61;20378;-70
2023/11/13 10:19:13;0.00;0.00;0.62;0.00;0.00;0.62;5.33;3.83;;;20.60;28.30;;;;;;2272264;61;20424;-71
2023/11/13 10:21:58;0.00;0.00;0.62;0.00;0.00;0.62;4.77;3.30;;;20.60;28.80;;;;;;2271907;60;20476;-70
2023/11/13 10:24:56;0.00;0.00;0.62;0.00;0.00;0.62;4.40;3.77;;;20.70;28.40;;;;;;2271993;61;20398;-70
2023/11/13 10:27:46;0.00;0.00;0.62;0.00;0.00;0.62;5.07;4.27;;;20.70;28.40;;;;;;2272045;61;20389;-69
2023/11/13 10:30:31;0.00;0.00;0.62;0.00;0.00;0.62;5.03;3.63;;;20.60;28.30;;;;;;2272498;61;21046;-70
2023/11/13 10:33:15;0.00;0.00;0.62;0.00;0.00;0.62;3.90;3.47;;;20.70;28.40;;;;;;2272570;61;20362;-70
2023/11/13 10:36:13;0.00;0.00;0.62;0.00;0.00;0.62;5.90;3.80;;;20.70;28.30;;;;;;2271977;61;20789;-69
2023/11/13 10:38:58;0.00;0.00;0.62;0.00;0.00;0.62;4.93;3.40;;;20.70;28.30;;;;;;2272285;61;20392;-70
2023/11/13 10:41:47;0.00;0.00;0.62;0.00;0.00;0.62;4.60;3.43;;;20.60;28.30;;;;;;2274756;60;20451;-71
2023/11/13 10:44:37;0.00;0.00;0.62;0.00;0.00;0.62;5.10;3.80;;;20.70;28.30;;;;;;2272857;61;20390;-70
2023/11/13 10:47:23;0.00;0.00;0.62;0.00;0.00;0.62;4.30;3.03;;;20.70;28.30;;;;;;2272647;61;21140;-69
2023/11/13 10:50:18;0.00;0.00;0.62;0.00;0.00;0.62;4.77;3.53;;;20.70;28.30;;;;;;2271413;61;20377;-72
2023/11/13 10:53:05;0.00;0.00;0.62;0.00;0.00;0.62;4.93;3.60;;;20.70;28.30;;;;;;2272510;61;20425;-69